Millinocket, ME (04462)

5:49 PM EST on February 12, 2016 (GMT -0500)
APRSWXNET | | Change Station
CLOSE
Current Station
Personal Weather Station
Location: Millinocket, ME
Elevation: 475 ft
Nearby Weather Stations
Active Advisory: Wind Chill Advisory

Elev 475 ft 45.74 °N, 68.73 °W | Updated 20 minutes ago

Haze
Haze
5 °F
Feels Like 5 °F
N
0
Wind Variable Wind from NW
Gusts 1.0 mph

Today
High -- | Low -- °F
--% Chance of Precip.
Yesterday
High -- | Low -- °F
Precip. -- in
Pressure 30.03 in
Visibility 6.0 miles
Clouds Clear
Windchill 5 °F
Dew Point -3 °F
Humidity 70%
Rainfall in
Snow Depth Not available.
6:42 AM 4:56 PM
Waxing Crescent, 24% visible
METAR KMLT 122153Z AUTO 00000KT 6SM HZ CLR M12/M22 A2998 RMK AO2 SLP167 T11171217
Pressure 30.03 in
Visibility 6.0 miles
Clouds Clear
Windchill 5 °F
Dew Point -3 °F
Humidity 70%
Rainfall in
Snow Depth Not available.
6:42 AM 4:56 PM
Waxing Crescent, 24% visible
METAR KMLT 122153Z AUTO 00000KT 6SM HZ CLR M12/M22 A2998 RMK AO2 SLP167 T11171217

10-Day Weather Forecast

Almanac

Astronomy

Feb. 12, 2016 Rise Set
Actual Time
Civil Twilight
Nautical Twilight
Astronomical Twilight
Moon
Length of Visible Light
Length of Day
Tomorrow will be .
, % of the Moon is Illuminated

Today's Extremes

State Highs State Lows

Community

WunderPhotos

Upload Photos

1,892,424 photos uploaded!

WunderBlog® & News

Nearby

Air Quality

  Air Quality AQ Index Pollutant
Not available.

Snow Depth

Station Depth Elevation

Earthquake Activity

City Distance Mag. Time & Date
Minimum magnitude displayed is 2.5.

Coastal Water Temperatures

Place Temperature

Stations

Nearby Weather Stations

Station Location Temp. Windchill Dew Point Humidity Wind Precip. Elev Updated Type
                   

Watches & Warnings

Wind Chill Advisory
Issued: 3:15 PM EST Feb. 12, 2016 – National Weather Service

... Wind Chill Advisory remains in effect from 2 am to 10 am EST
Sunday...

* locations... central and southern Aroostook County... Penobscot
County... and interior Hancock and Washington counties.

* Hazard types... bitterly cold wind chills.

* Wind chill readings... 20 to 30 below zero.

* Timing... late Saturday night into Sunday morning.

* Impacts... frostbite and hypothermia are possible if not
dressed appropriately while outdoors.

* Winds... northwest 10 to 15 mph with gusts up to 30 mph.

* Temperatures... 0 to 10 below zero.

Precautionary/preparedness actions...

A Wind Chill Advisory means that very cold air and strong winds
will combine to generate low wind chills. This will result in
frost bite and lead to hypothermia if precautions are not taken.
If you must venture outdoors... make sure you wear a hat and
gloves.